sensor_id;sensor_type;location;lat;lon;timestamp;P1;durP1;ratioP1;P2;durP2;ratioP2
3000;SDS011;1510;51.072;6.678;2022-08-27T00:00:31;16.77;;;14.97;;
3000;SDS011;1510;51.072;6.678;2022-08-27T00:02:58;15.40;;;12.37;;
3000;SDS011;1510;51.072;6.678;2022-08-27T00:05:26;13.70;;;12.00;;
3000;SDS011;1510;51.072;6.678;2022-08-27T00:07:54;14.13;;;12.83;;
3000;SDS011;1510;51.072;6.678;2022-08-27T00:10:22;16.37;;;14.60;;
3000;SDS011;1510;51.072;6.678;2022-08-27T00:12:51;15.67;;;14.27;;
3000;SDS011;1510;51.072;6.678;2022-08-27T00:15:19;34.77;;;32.47;;
3000;SDS011;1510;51.072;6.678;2022-08-27T00:17:46;44.70;;;42.17;;
3000;SDS011;1510;51.072;6.678;2022-08-27T00:20:14;55.07;;;51.97;;
3000;SDS011;1510;51.072;6.678;2022-08-27T00:22:43;75.80;;;72.50;;
3000;SDS011;1510;51.072;6.678;2022-08-27T00:25:11;111.50;;;107.20;;
3000;SDS011;1510;51.072;6.678;2022-08-27T00:27:38;88.77;;;85.07;;
3000;SDS011;1510;51.072;6.678;2022-08-27T00:30:06;101.40;;;96.63;;
3000;SDS011;1510;51.072;6.678;2022-08-27T00:32:36;122.37;;;116.87;;
3000;SDS011;1510;51.072;6.678;2022-08-27T00:35:04;128.63;;;123.00;;
3000;SDS011;1510;51.072;6.678;2022-08-27T00:37:32;140.97;;;135.77;;
3000;SDS011;1510;51.072;6.678;2022-08-27T00:39:59;111.47;;;106.83;;
3000;SDS011;1510;51.072;6.678;2022-08-27T00:42:27;101.43;;;97.27;;
3000;SDS011;1510;51.072;6.678;2022-08-27T00:44:54;114.07;;;109.30;;
3000;SDS011;1510;51.072;6.678;2022-08-27T00:47:22;77.83;;;74.60;;
3000;SDS011;1510;51.072;6.678;2022-08-27T00:49:52;66.20;;;63.23;;
3000;SDS011;1510;51.072;6.678;2022-08-27T00:52:23;79.63;;;76.17;;
3000;SDS011;1510;51.072;6.678;2022-08-27T00:54:55;88.13;;;84.27;;
3000;SDS011;1510;51.072;6.678;2022-08-27T00:57:25;92.13;;;87.70;;
3000;SDS011;1510;51.072;6.678;2022-08-27T00:59:53;94.57;;;90.67;;
3000;SDS011;1510;51.072;6.678;2022-08-27T01:02:20;95.13;;;91.37;;
3000;SDS011;1510;51.072;6.678;2022-08-27T01:04:54;105.70;;;101.17;;
3000;SDS011;1510;51.072;6.678;2022-08-27T01:07:24;34.23;;;32.73;;
3000;SDS011;1510;51.072;6.678;2022-08-27T01:09:53;61.40;;;58.77;;
3000;SDS011;1510;51.072;6.678;2022-08-27T01:12:23;80.37;;;76.87;;
3000;SDS011;1510;51.072;6.678;2022-08-27T01:14:50;87.17;;;83.87;;
3000;SDS011;1510;51.072;6.678;2022-08-27T01:17:18;117.00;;;112.70;;
3000;SDS011;1510;51.072;6.678;2022-08-27T01:19:46;95.63;;;92.03;;
3000;SDS011;1510;51.072;6.678;2022-08-27T01:22:17;104.13;;;99.67;;
3000;SDS011;1510;51.072;6.678;2022-08-27T01:24:57;132.50;;;127.60;;
3000;SDS011;1510;51.072;6.678;2022-08-27T01:27:27;68.10;;;65.40;;
3000;SDS011;1510;51.072;6.678;2022-08-27T01:29:56;117.40;;;113.07;;
3000;SDS011;1510;51.072;6.678;2022-08-27T01:32:24;104.73;;;100.73;;
3000;SDS011;1510;51.072;6.678;2022-08-27T01:34:53;130.73;;;126.03;;
3000;SDS011;1510;51.072;6.678;2022-08-27T01:37:21;116.77;;;112.23;;
3000;SDS011;1510;51.072;6.678;2022-08-27T01:39:49;91.83;;;88.23;;
3000;SDS011;1510;51.072;6.678;2022-08-27T01:42:19;75.63;;;72.30;;
3000;SDS011;1510;51.072;6.678;2022-08-27T01:44:50;70.93;;;67.37;;
3000;SDS011;1510;51.072;6.678;2022-08-27T01:47:21;97.67;;;93.90;;
3000;SDS011;1510;51.072;6.678;2022-08-27T01:49:50;94.47;;;90.83;;
3000;SDS011;1510;51.072;6.678;2022-08-27T01:52:18;64.40;;;61.80;;
3000;SDS011;1510;51.072;6.678;2022-08-27T01:54:46;105.43;;;101.50;;
3000;SDS011;1510;51.072;6.678;2022-08-27T01:57:15;86.53;;;83.13;;
3000;SDS011;1510;51.072;6.678;2022-08-27T01:59:44;76.87;;;73.50;;
3000;SDS011;1510;51.072;6.678;2022-08-27T02:02:11;88.37;;;84.87;;
3000;SDS011;1510;51.072;6.678;2022-08-27T02:04:41;78.00;;;75.10;;
3000;SDS011;1510;51.072;6.678;2022-08-27T02:07:09;86.63;;;83.20;;
3000;SDS011;1510;51.072;6.678;2022-08-27T02:09:36;85.53;;;81.87;;
3000;SDS011;1510;51.072;6.678;2022-08-27T02:12:03;89.50;;;85.87;;
3000;SDS011;1510;51.072;6.678;2022-08-27T02:14:30;63.90;;;61.33;;
3000;SDS011;1510;51.072;6.678;2022-08-27T02:16:58;54.20;;;51.50;;
3000;SDS011;1510;51.072;6.678;2022-08-27T02:19:25;67.63;;;64.80;;
3000;SDS011;1510;51.072;6.678;2022-08-27T02:21:52;62.00;;;59.37;;
3000;SDS011;1510;51.072;6.678;2022-08-27T02:24:19;46.97;;;44.57;;
3000;SDS011;1510;51.072;6.678;2022-08-27T02:26:45;42.73;;;40.53;;
3000;SDS011;1510;51.072;6.678;2022-08-27T02:29:13;40.53;;;38.47;;
3000;SDS011;1510;51.072;6.678;2022-08-27T02:31:39;20.90;;;19.60;;
3000;SDS011;1510;51.072;6.678;2022-08-27T02:34:08;26.17;;;24.67;;
3000;SDS011;1510;51.072;6.678;2022-08-27T02:36:35;22.63;;;21.07;;
3000;SDS011;1510;51.072;6.678;2022-08-27T02:39:02;21.97;;;20.57;;
3000;SDS011;1510;51.072;6.678;2022-08-27T02:41:29;16.67;;;15.40;;
3000;SDS011;1510;51.072;6.678;2022-08-27T02:43:56;9.57;;;8.67;;
3000;SDS011;1510;51.072;6.678;2022-08-27T02:46:23;13.37;;;8.57;;
3000;SDS011;1510;51.072;6.678;2022-08-27T02:48:50;15.10;;;10.93;;
3000;SDS011;1510;51.072;6.678;2022-08-27T02:51:18;10.77;;;9.60;;
3000;SDS011;1510;51.072;6.678;2022-08-27T02:53:45;16.00;;;10.80;;
3000;SDS011;1510;51.072;6.678;2022-08-27T02:56:12;15.10;;;13.60;;
3000;SDS011;1510;51.072;6.678;2022-08-27T02:58:39;9.97;;;8.93;;
3000;SDS011;1510;51.072;6.678;2022-08-27T03:01:06;8.70;;;7.80;;
3000;SDS011;1510;51.072;6.678;2022-08-27T03:03:33;8.80;;;6.77;;
3000;SDS011;1510;51.072;6.678;2022-08-27T03:06:00;10.33;;;6.50;;
3000;SDS011;1510;51.072;6.678;2022-08-27T03:08:28;13.17;;;7.63;;
3000;SDS011;1510;51.072;6.678;2022-08-27T03:10:55;9.97;;;6.43;;
3000;SDS011;1510;51.072;6.678;2022-08-27T03:13:22;7.50;;;6.63;;
3000;SDS011;1510;51.072;6.678;2022-08-27T03:15:50;11.77;;;6.17;;
3000;SDS011;1510;51.072;6.678;2022-08-27T03:18:17;11.67;;;6.00;;
3000;SDS011;1510;51.072;6.678;2022-08-27T03:20:44;10.67;;;4.90;;
3000;SDS011;1510;51.072;6.678;2022-08-27T03:23:13;9.30;;;5.27;;
3000;SDS011;1510;51.072;6.678;2022-08-27T03:25:46;10.37;;;4.40;;
3000;SDS011;1510;51.072;6.678;2022-08-27T03:28:16;8.50;;;4.20;;
3000;SDS011;1510;51.072;6.678;2022-08-27T03:30:46;8.20;;;4.10;;
3000;SDS011;1510;51.072;6.678;2022-08-27T03:33:15;6.17;;;4.63;;
3000;SDS011;1510;51.072;6.678;2022-08-27T03:35:43;9.70;;;4.30;;
3000;SDS011;1510;51.072;6.678;2022-08-27T03:38:11;8.30;;;4.50;;
3000;SDS011;1510;51.072;6.678;2022-08-27T03:40:38;10.00;;;4.97;;
3000;SDS011;1510;51.072;6.678;2022-08-27T03:43:06;6.33;;;4.40;;
3000;SDS011;1510;51.072;6.678;2022-08-27T03:45:33;9.43;;;5.37;;
3000;SDS011;1510;51.072;6.678;2022-08-27T03:48:00;6.43;;;4.80;;
3000;SDS011;1510;51.072;6.678;2022-08-27T03:50:26;11.17;;;4.93;;
3000;SDS011;1510;51.072;6.678;2022-08-27T03:52:53;12.20;;;6.00;;
3000;SDS011;1510;51.072;6.678;2022-08-27T03:55:20;13.70;;;5.93;;
3000;SDS011;1510;51.072;6.678;2022-08-27T03:57:47;10.47;;;4.93;;
3000;SDS011;1510;51.072;6.678;2022-08-27T04:00:15;12.03;;;5.60;;
3000;SDS011;1510;51.072;6.678;2022-08-27T04:02:42;11.83;;;5.80;;
3000;SDS011;1510;51.072;6.678;2022-08-27T04:05:10;10.90;;;5.43;;
3000;SDS011;1510;51.072;6.678;2022-08-27T04:07:38;11.63;;;5.07;;
3000;SDS011;1510;51.072;6.678;2022-08-27T04:10:07;12.37;;;5.07;;
3000;SDS011;1510;51.072;6.678;2022-08-27T04:12:36;8.80;;;5.47;;
3000;SDS011;1510;51.072;6.678;2022-08-27T04:15:04;9.57;;;5.23;;
3000;SDS011;1510;51.072;6.678;2022-08-27T04:17:33;7.83;;;5.60;;
3000;SDS011;1510;51.072;6.678;2022-08-27T04:20:00;12.77;;;5.90;;
3000;SDS011;1510;51.072;6.678;2022-08-27T04:22:28;12.00;;;6.70;;
3000;SDS011;1510;51.072;6.678;2022-08-27T04:24:54;9.20;;;5.40;;
3000;SDS011;1510;51.072;6.678;2022-08-27T04:27:21;7.53;;;5.40;;
3000;SDS011;1510;51.072;6.678;2022-08-27T04:29:52;11.63;;;5.97;;
3000;SDS011;1510;51.072;6.678;2022-08-27T04:32:20;9.30;;;5.57;;
3000;SDS011;1510;51.072;6.678;2022-08-27T04:34:51;17.60;;;7.17;;
3000;SDS011;1510;51.072;6.678;2022-08-27T04:37:18;13.13;;;6.03;;
3000;SDS011;1510;51.072;6.678;2022-08-27T04:39:45;12.60;;;7.20;;
3000;SDS011;1510;51.072;6.678;2022-08-27T04:42:12;9.97;;;6.40;;
3000;SDS011;1510;51.072;6.678;2022-08-27T04:44:39;11.83;;;6.43;;
3000;SDS011;1510;51.072;6.678;2022-08-27T04:47:05;15.70;;;7.03;;
3000;SDS011;1510;51.072;6.678;2022-08-27T04:49:32;13.13;;;6.90;;
3000;SDS011;1510;51.072;6.678;2022-08-27T04:52:00;10.83;;;6.10;;
3000;SDS011;1510;51.072;6.678;2022-08-27T04:54:28;15.90;;;8.27;;
3000;SDS011;1510;51.072;6.678;2022-08-27T04:56:55;10.40;;;4.90;;
3000;SDS011;1510;51.072;6.678;2022-08-27T04:59:22;7.60;;;5.00;;
3000;SDS011;1510;51.072;6.678;2022-08-27T05:01:48;10.30;;;4.50;;
3000;SDS011;1510;51.072;6.678;2022-08-27T05:04:16;8.83;;;5.57;;
3000;SDS011;1510;51.072;6.678;2022-08-27T05:06:43;11.07;;;4.90;;
3000;SDS011;1510;51.072;6.678;2022-08-27T05:09:15;9.10;;;5.17;;
3000;SDS011;1510;51.072;6.678;2022-08-27T05:11:43;15.90;;;6.30;;
3000;SDS011;1510;51.072;6.678;2022-08-27T05:14:12;14.53;;;5.87;;
3000;SDS011;1510;51.072;6.678;2022-08-27T05:16:40;10.73;;;5.57;;
3000;SDS011;1510;51.072;6.678;2022-08-27T05:19:08;11.13;;;7.57;;
3000;SDS011;1510;51.072;6.678;2022-08-27T05:21:38;11.33;;;6.90;;
3000;SDS011;1510;51.072;6.678;2022-08-27T05:24:10;10.70;;;6.27;;
3000;SDS011;1510;51.072;6.678;2022-08-27T05:26:38;15.47;;;9.10;;
3000;SDS011;1510;51.072;6.678;2022-08-27T05:29:05;13.20;;;8.80;;
3000;SDS011;1510;51.072;6.678;2022-08-27T05:31:32;14.53;;;12.60;;
3000;SDS011;1510;51.072;6.678;2022-08-27T05:34:01;22.40;;;20.20;;
3000;SDS011;1510;51.072;6.678;2022-08-27T05:36:30;24.07;;;22.17;;
3000;SDS011;1510;51.072;6.678;2022-08-27T05:38:59;23.77;;;21.57;;
3000;SDS011;1510;51.072;6.678;2022-08-27T05:41:28;41.70;;;39.10;;
3000;SDS011;1510;51.072;6.678;2022-08-27T05:43:59;55.47;;;51.70;;
3000;SDS011;1510;51.072;6.678;2022-08-27T05:46:28;186.40;;;179.50;;
3000;SDS011;1510;51.072;6.678;2022-08-27T05:48:56;216.83;;;209.13;;
3000;SDS011;1510;51.072;6.678;2022-08-27T05:51:24;161.80;;;154.93;;
3000;SDS011;1510;51.072;6.678;2022-08-27T05:53:53;98.37;;;93.93;;
3000;SDS011;1510;51.072;6.678;2022-08-27T05:56:22;383.23;;;368.63;;
3000;SDS011;1510;51.072;6.678;2022-08-27T05:58:51;426.10;;;409.67;;
3000;SDS011;1510;51.072;6.678;2022-08-27T06:01:44;401.57;;;386.57;;
3000;SDS011;1510;51.072;6.678;2022-08-27T06:04:13;551.10;;;525.83;;
3000;SDS011;1510;51.072;6.678;2022-08-27T06:06:41;500.77;;;479.77;;
3000;SDS011;1510;51.072;6.678;2022-08-27T06:09:10;520.23;;;498.07;;
3000;SDS011;1510;51.072;6.678;2022-08-27T06:11:39;490.63;;;470.07;;
3000;SDS011;1510;51.072;6.678;2022-08-27T06:14:07;519.43;;;498.00;;
3000;SDS011;1510;51.072;6.678;2022-08-27T06:16:34;613.57;;;584.37;;
3000;SDS011;1510;51.072;6.678;2022-08-27T06:19:03;479.73;;;460.13;;
3000;SDS011;1510;51.072;6.678;2022-08-27T06:21:31;555.33;;;530.93;;
3000;SDS011;1510;51.072;6.678;2022-08-27T06:23:58;579.67;;;554.33;;
3000;SDS011;1510;51.072;6.678;2022-08-27T06:26:25;547.60;;;524.60;;
3000;SDS011;1510;51.072;6.678;2022-08-27T06:28:53;532.67;;;510.80;;
3000;SDS011;1510;51.072;6.678;2022-08-27T06:31:21;530.10;;;507.20;;
3000;SDS011;1510;51.072;6.678;2022-08-27T06:33:50;486.70;;;466.43;;
3000;SDS011;1510;51.072;6.678;2022-08-27T06:36:19;601.33;;;573.57;;
3000;SDS011;1510;51.072;6.678;2022-08-27T06:38:48;519.97;;;497.47;;
3000;SDS011;1510;51.072;6.678;2022-08-27T06:41:16;467.33;;;449.33;;
3000;SDS011;1510;51.072;6.678;2022-08-27T06:43:47;551.43;;;528.47;;
3000;SDS011;1510;51.072;6.678;2022-08-27T06:46:15;616.30;;;587.90;;
3000;SDS011;1510;51.072;6.678;2022-08-27T06:48:44;547.43;;;523.80;;
3000;SDS011;1510;51.072;6.678;2022-08-27T06:51:13;531.10;;;508.63;;
3000;SDS011;1510;51.072;6.678;2022-08-27T06:53:43;525.97;;;504.20;;
3000;SDS011;1510;51.072;6.678;2022-08-27T06:56:12;595.67;;;568.43;;
3000;SDS011;1510;51.072;6.678;2022-08-27T06:58:40;606.23;;;578.03;;
3000;SDS011;1510;51.072;6.678;2022-08-27T07:01:11;596.43;;;569.37;;
3000;SDS011;1510;51.072;6.678;2022-08-27T07:03:39;577.10;;;552.20;;
3000;SDS011;1510;51.072;6.678;2022-08-27T07:06:07;538.03;;;515.33;;
3000;SDS011;1510;51.072;6.678;2022-08-27T07:08:39;500.43;;;480.53;;
3000;SDS011;1510;51.072;6.678;2022-08-27T07:11:09;559.43;;;534.77;;
3000;SDS011;1510;51.072;6.678;2022-08-27T07:13:41;501.47;;;480.27;;
3000;SDS011;1510;51.072;6.678;2022-08-27T07:16:15;453.00;;;434.70;;
3000;SDS011;1510;51.072;6.678;2022-08-27T07:18:44;502.13;;;480.23;;
3000;SDS011;1510;51.072;6.678;2022-08-27T07:21:22;435.83;;;418.33;;
3000;SDS011;1510;51.072;6.678;2022-08-27T07:24:02;348.87;;;335.63;;
3000;SDS011;1510;51.072;6.678;2022-08-27T07:26:32;474.80;;;454.63;;
3000;SDS011;1510;51.072;6.678;2022-08-27T07:29:15;483.77;;;463.27;;
3000;SDS011;1510;51.072;6.678;2022-08-27T07:31:50;539.27;;;513.80;;
3000;SDS011;1510;51.072;6.678;2022-08-27T07:34:23;490.07;;;469.60;;
3000;SDS011;1510;51.072;6.678;2022-08-27T07:36:49;561.87;;;537.57;;
3000;SDS011;1510;51.072;6.678;2022-08-27T07:39:16;637.37;;;606.60;;
3000;SDS011;1510;51.072;6.678;2022-08-27T07:41:44;630.47;;;601.27;;
3000;SDS011;1510;51.072;6.678;2022-08-27T07:44:40;655.43;;;624.17;;
3000;SDS011;1510;51.072;6.678;2022-08-27T07:47:08;549.67;;;528.07;;
3000;SDS011;1510;51.072;6.678;2022-08-27T07:49:42;572.33;;;549.03;;
3000;SDS011;1510;51.072;6.678;2022-08-27T07:52:12;591.73;;;566.53;;
3000;SDS011;1510;51.072;6.678;2022-08-27T07:54:40;616.67;;;590.73;;
3000;SDS011;1510;51.072;6.678;2022-08-27T07:57:08;520.13;;;500.50;;
3000;SDS011;1510;51.072;6.678;2022-08-27T07:59:35;423.07;;;408.43;;
3000;SDS011;1510;51.072;6.678;2022-08-27T08:02:02;513.10;;;494.00;;
3000;SDS011;1510;51.072;6.678;2022-08-27T08:04:32;522.87;;;502.80;;
3000;SDS011;1510;51.072;6.678;2022-08-27T08:07:05;361.57;;;349.53;;
3000;SDS011;1510;51.072;6.678;2022-08-27T08:09:46;275.00;;;266.20;;
3000;SDS011;1510;51.072;6.678;2022-08-27T08:13:00;305.60;;;296.03;;
3000;SDS011;1510;51.072;6.678;2022-08-27T08:15:45;304.17;;;293.77;;
3000;SDS011;1510;51.072;6.678;2022-08-27T08:18:13;242.43;;;234.33;;
3000;SDS011;1510;51.072;6.678;2022-08-27T08:20:40;289.07;;;279.57;;
3000;SDS011;1510;51.072;6.678;2022-08-27T08:23:13;252.57;;;243.93;;
3000;SDS011;1510;51.072;6.678;2022-08-27T08:25:46;122.47;;;117.63;;
3000;SDS011;1510;51.072;6.678;2022-08-27T08:31:34;103.53;;;98.70;;
3000;SDS011;1510;51.072;6.678;2022-08-27T08:34:41;144.93;;;139.73;;
3000;SDS011;1510;51.072;6.678;2022-08-27T08:37:43;92.53;;;88.43;;
3000;SDS011;1510;51.072;6.678;2022-08-27T08:44:02;18.07;;;14.67;;
3000;SDS011;1510;51.072;6.678;2022-08-27T08:46:51;18.23;;;16.43;;
3000;SDS011;1510;51.072;6.678;2022-08-27T08:49:31;30.30;;;28.03;;
3000;SDS011;1510;51.072;6.678;2022-08-27T08:52:14;13.27;;;8.97;;
3000;SDS011;1510;51.072;6.678;2022-08-27T08:54:53;13.67;;;8.53;;
3000;SDS011;1510;51.072;6.678;2022-08-27T08:57:27;12.03;;;6.67;;
3000;SDS011;1510;51.072;6.678;2022-08-27T09:00:02;14.73;;;6.43;;
3000;SDS011;1510;51.072;6.678;2022-08-27T09:02:37;11.47;;;5.80;;
3000;SDS011;1510;51.072;6.678;2022-08-27T09:05:06;10.40;;;5.70;;
3000;SDS011;1510;51.072;6.678;2022-08-27T09:07:36;8.83;;;4.43;;
3000;SDS011;1510;51.072;6.678;2022-08-27T09:10:13;11.40;;;4.57;;
3000;SDS011;1510;51.072;6.678;2022-08-27T09:12:45;12.40;;;5.33;;
3000;SDS011;1510;51.072;6.678;2022-08-27T09:15:27;8.97;;;4.57;;
3000;SDS011;1510;51.072;6.678;2022-08-27T09:18:13;8.87;;;4.87;;
3000;SDS011;1510;51.072;6.678;2022-08-27T09:20:52;9.93;;;5.20;;
3000;SDS011;1510;51.072;6.678;2022-08-27T09:23:32;15.00;;;6.00;;
3000;SDS011;1510;51.072;6.678;2022-08-27T09:26:17;9.10;;;5.23;;
3000;SDS011;1510;51.072;6.678;2022-08-27T09:29:02;11.63;;;5.57;;
3000;SDS011;1510;51.072;6.678;2022-08-27T09:31:56;11.70;;;6.13;;
3000;SDS011;1510;51.072;6.678;2022-08-27T09:34:35;10.43;;;5.60;;
3000;SDS011;1510;51.072;6.678;2022-08-27T09:37:12;11.63;;;5.80;;
3000;SDS011;1510;51.072;6.678;2022-08-27T09:39:49;9.23;;;4.90;;
3000;SDS011;1510;51.072;6.678;2022-08-27T09:42:28;12.70;;;5.30;;
3000;SDS011;1510;51.072;6.678;2022-08-27T09:45:08;9.93;;;5.00;;
3000;SDS011;1510;51.072;6.678;2022-08-27T09:47:41;13.60;;;6.17;;
3000;SDS011;1510;51.072;6.678;2022-08-27T09:52:52;14.30;;;6.30;;
3000;SDS011;1510;51.072;6.678;2022-08-27T09:55:27;10.73;;;5.20;;
3000;SDS011;1510;51.072;6.678;2022-08-27T09:57:58;15.03;;;6.63;;
3000;SDS011;1510;51.072;6.678;2022-08-27T10:00:31;10.67;;;5.17;;
3000;SDS011;1510;51.072;6.678;2022-08-27T10:03:01;14.50;;;5.40;;
3000;SDS011;1510;51.072;6.678;2022-08-27T10:05:30;12.07;;;6.23;;
3000;SDS011;1510;51.072;6.678;2022-08-27T10:08:03;9.40;;;5.40;;
3000;SDS011;1510;51.072;6.678;2022-08-27T10:10:37;10.40;;;5.30;;
3000;SDS011;1510;51.072;6.678;2022-08-27T10:42:26;10.50;;;5.27;;
3000;SDS011;1510;51.072;6.678;2022-08-27T10:45:02;14.13;;;6.37;;
3000;SDS011;1510;51.072;6.678;2022-08-27T10:47:42;10.47;;;5.07;;
3000;SDS011;1510;51.072;6.678;2022-08-27T10:50:20;18.53;;;6.00;;
3000;SDS011;1510;51.072;6.678;2022-08-27T10:52:53;17.13;;;6.30;;
3000;SDS011;1510;51.072;6.678;2022-08-27T10:55:26;11.20;;;5.53;;
3000;SDS011;1510;51.072;6.678;2022-08-27T10:58:12;9.37;;;4.87;;
3000;SDS011;1510;51.072;6.678;2022-08-27T11:00:48;14.90;;;7.83;;
3000;SDS011;1510;51.072;6.678;2022-08-27T11:03:37;12.87;;;8.57;;
3000;SDS011;1510;51.072;6.678;2022-08-27T11:06:11;12.90;;;8.13;;
3000;SDS011;1510;51.072;6.678;2022-08-27T11:08:41;14.80;;;9.00;;
3000;SDS011;1510;51.072;6.678;2022-08-27T11:11:16;13.17;;;8.30;;
3000;SDS011;1510;51.072;6.678;2022-08-27T11:13:50;13.07;;;7.63;;
3000;SDS011;1510;51.072;6.678;2022-08-27T11:16:19;10.93;;;6.83;;
3000;SDS011;1510;51.072;6.678;2022-08-27T11:18:51;17.50;;;8.10;;
3000;SDS011;1510;51.072;6.678;2022-08-27T11:21:23;15.90;;;7.93;;
3000;SDS011;1510;51.072;6.678;2022-08-27T11:24:10;10.23;;;6.07;;
3000;SDS011;1510;51.072;6.678;2022-08-27T11:26:44;10.87;;;5.50;;
3000;SDS011;1510;51.072;6.678;2022-08-27T11:29:17;11.90;;;4.77;;
3000;SDS011;1510;51.072;6.678;2022-08-27T11:31:52;8.83;;;5.40;;
3000;SDS011;1510;51.072;6.678;2022-08-27T11:34:26;9.93;;;5.43;;
3000;SDS011;1510;51.072;6.678;2022-08-27T11:40:04;10.00;;;5.60;;
3000;SDS011;1510;51.072;6.678;2022-08-27T11:42:53;8.37;;;5.30;;
3000;SDS011;1510;51.072;6.678;2022-08-27T11:45:26;12.20;;;5.47;;
3000;SDS011;1510;51.072;6.678;2022-08-27T11:47:59;9.37;;;5.20;;
3000;SDS011;1510;51.072;6.678;2022-08-27T11:50:27;10.80;;;5.30;;
3000;SDS011;1510;51.072;6.678;2022-08-27T11:52:57;10.40;;;6.07;;
3000;SDS011;1510;51.072;6.678;2022-08-27T11:55:27;11.47;;;6.63;;
3000;SDS011;1510;51.072;6.678;2022-08-27T11:58:04;7.57;;;5.30;;
3000;SDS011;1510;51.072;6.678;2022-08-27T12:00:35;13.13;;;4.90;;
3000;SDS011;1510;51.072;6.678;2022-08-27T12:03:04;13.00;;;6.50;;
3000;SDS011;1510;51.072;6.678;2022-08-27T12:05:34;14.03;;;7.47;;
3000;SDS011;1510;51.072;6.678;2022-08-27T12:08:15;17.17;;;7.50;;
3000;SDS011;1510;51.072;6.678;2022-08-27T12:11:13;9.33;;;5.70;;
3000;SDS011;1510;51.072;6.678;2022-08-27T12:13:54;11.57;;;5.23;;
3000;SDS011;1510;51.072;6.678;2022-08-27T12:16:29;12.10;;;5.00;;
3000;SDS011;1510;51.072;6.678;2022-08-27T12:19:25;7.97;;;5.00;;
3000;SDS011;1510;51.072;6.678;2022-08-27T12:22:06;15.03;;;4.57;;
3000;SDS011;1510;51.072;6.678;2022-08-27T12:24:47;8.13;;;3.70;;
3000;SDS011;1510;51.072;6.678;2022-08-27T12:27:24;7.80;;;4.80;;
3000;SDS011;1510;51.072;6.678;2022-08-27T12:29:57;12.73;;;4.70;;
3000;SDS011;1510;51.072;6.678;2022-08-27T12:32:27;9.97;;;4.17;;
3000;SDS011;1510;51.072;6.678;2022-08-27T12:35:01;8.30;;;4.50;;
3000;SDS011;1510;51.072;6.678;2022-08-27T12:37:36;8.93;;;5.00;;
3000;SDS011;1510;51.072;6.678;2022-08-27T12:40:10;9.90;;;4.70;;
3000;SDS011;1510;51.072;6.678;2022-08-27T12:42:42;14.70;;;5.10;;
3000;SDS011;1510;51.072;6.678;2022-08-27T12:45:16;8.93;;;4.07;;
3000;SDS011;1510;51.072;6.678;2022-08-27T12:51:12;9.83;;;3.80;;
3000;SDS011;1510;51.072;6.678;2022-08-27T13:01:46;8.37;;;3.63;;
3000;SDS011;1510;51.072;6.678;2022-08-27T13:07:28;9.70;;;3.67;;
3000;SDS011;1510;51.072;6.678;2022-08-27T13:09:56;7.10;;;3.77;;
3000;SDS011;1510;51.072;6.678;2022-08-27T13:12:34;10.43;;;3.73;;
3000;SDS011;1510;51.072;6.678;2022-08-27T13:15:04;8.47;;;3.13;;
3000;SDS011;1510;51.072;6.678;2022-08-27T13:17:35;8.90;;;3.70;;
3000;SDS011;1510;51.072;6.678;2022-08-27T13:20:06;13.63;;;3.10;;
3000;SDS011;1510;51.072;6.678;2022-08-27T13:22:41;7.43;;;3.37;;
3000;SDS011;1510;51.072;6.678;2022-08-27T13:25:19;8.47;;;4.23;;
3000;SDS011;1510;51.072;6.678;2022-08-27T13:27:51;7.73;;;3.70;;
3000;SDS011;1510;51.072;6.678;2022-08-27T13:30:20;7.50;;;3.43;;
3000;SDS011;1510;51.072;6.678;2022-08-27T13:32:48;9.00;;;3.47;;
3000;SDS011;1510;51.072;6.678;2022-08-27T13:35:16;10.33;;;4.50;;
3000;SDS011;1510;51.072;6.678;2022-08-27T13:37:49;7.27;;;3.17;;
3000;SDS011;1510;51.072;6.678;2022-08-27T13:40:22;13.13;;;2.80;;
3000;SDS011;1510;51.072;6.678;2022-08-27T13:42:52;6.17;;;2.33;;
3000;SDS011;1510;51.072;6.678;2022-08-27T13:45:20;9.03;;;2.97;;
3000;SDS011;1510;51.072;6.678;2022-08-27T13:47:47;8.03;;;3.30;;
3000;SDS011;1510;51.072;6.678;2022-08-27T13:50:17;13.33;;;3.30;;
3000;SDS011;1510;51.072;6.678;2022-08-27T13:52:48;7.37;;;3.13;;
3000;SDS011;1510;51.072;6.678;2022-08-27T13:55:32;13.30;;;3.27;;
3000;SDS011;1510;51.072;6.678;2022-08-27T13:57:59;8.13;;;2.70;;
3000;SDS011;1510;51.072;6.678;2022-08-27T14:00:36;8.13;;;2.20;;
3000;SDS011;1510;51.072;6.678;2022-08-27T14:03:19;6.33;;;2.40;;
3000;SDS011;1510;51.072;6.678;2022-08-27T14:05:48;7.30;;;2.60;;
3000;SDS011;1510;51.072;6.678;2022-08-27T14:08:17;10.93;;;3.00;;
3000;SDS011;1510;51.072;6.678;2022-08-27T14:10:47;6.47;;;2.37;;
3000;SDS011;1510;51.072;6.678;2022-08-27T14:13:23;6.13;;;2.30;;
3000;SDS011;1510;51.072;6.678;2022-08-27T14:15:51;5.13;;;1.60;;
3000;SDS011;1510;51.072;6.678;2022-08-27T14:18:21;8.30;;;2.33;;
3000;SDS011;1510;51.072;6.678;2022-08-27T14:20:49;8.43;;;2.80;;
3000;SDS011;1510;51.072;6.678;2022-08-27T14:23:18;8.80;;;2.30;;
3000;SDS011;1510;51.072;6.678;2022-08-27T14:25:45;8.00;;;2.43;;
3000;SDS011;1510;51.072;6.678;2022-08-27T14:28:12;8.80;;;2.57;;
3000;SDS011;1510;51.072;6.678;2022-08-27T14:30:39;8.93;;;2.57;;
3000;SDS011;1510;51.072;6.678;2022-08-27T14:33:05;8.50;;;2.90;;
3000;SDS011;1510;51.072;6.678;2022-08-27T14:35:33;9.77;;;3.47;;
3000;SDS011;1510;51.072;6.678;2022-08-27T14:38:03;6.00;;;2.83;;
3000;SDS011;1510;51.072;6.678;2022-08-27T14:40:39;8.00;;;2.73;;
3000;SDS011;1510;51.072;6.678;2022-08-27T14:43:07;14.07;;;4.20;;
3000;SDS011;1510;51.072;6.678;2022-08-27T14:45:34;15.13;;;2.73;;
3000;SDS011;1510;51.072;6.678;2022-08-27T14:48:03;6.47;;;2.30;;
3000;SDS011;1510;51.072;6.678;2022-08-27T14:50:31;6.63;;;1.80;;
3000;SDS011;1510;51.072;6.678;2022-08-27T14:52:57;6.50;;;2.10;;
3000;SDS011;1510;51.072;6.678;2022-08-27T14:55:24;5.47;;;2.10;;
3000;SDS011;1510;51.072;6.678;2022-08-27T14:57:53;7.40;;;2.10;;
3000;SDS011;1510;51.072;6.678;2022-08-27T15:00:19;8.53;;;2.53;;
3000;SDS011;1510;51.072;6.678;2022-08-27T15:02:47;7.50;;;2.07;;
3000;SDS011;1510;51.072;6.678;2022-08-27T15:05:14;7.53;;;2.00;;
3000;SDS011;1510;51.072;6.678;2022-08-27T15:07:41;8.60;;;2.40;;
3000;SDS011;1510;51.072;6.678;2022-08-27T15:10:08;4.63;;;1.70;;
3000;SDS011;1510;51.072;6.678;2022-08-27T15:12:36;5.27;;;1.53;;
3000;SDS011;1510;51.072;6.678;2022-08-27T15:15:06;7.73;;;2.33;;
3000;SDS011;1510;51.072;6.678;2022-08-27T15:17:34;8.10;;;2.40;;
3000;SDS011;1510;51.072;6.678;2022-08-27T15:20:01;8.70;;;2.53;;
3000;SDS011;1510;51.072;6.678;2022-08-27T15:22:31;9.70;;;1.93;;
3000;SDS011;1510;51.072;6.678;2022-08-27T15:24:58;10.90;;;3.00;;
3000;SDS011;1510;51.072;6.678;2022-08-27T15:27:26;6.23;;;1.90;;
3000;SDS011;1510;51.072;6.678;2022-08-27T15:29:55;10.83;;;3.60;;
3000;SDS011;1510;51.072;6.678;2022-08-27T15:32:25;7.67;;;1.90;;
3000;SDS011;1510;51.072;6.678;2022-08-27T15:34:53;11.80;;;2.60;;
3000;SDS011;1510;51.072;6.678;2022-08-27T15:37:20;8.43;;;2.27;;
3000;SDS011;1510;51.072;6.678;2022-08-27T15:39:47;7.70;;;2.53;;
3000;SDS011;1510;51.072;6.678;2022-08-27T15:42:14;9.43;;;2.40;;
3000;SDS011;1510;51.072;6.678;2022-08-27T15:44:43;11.80;;;2.00;;
3000;SDS011;1510;51.072;6.678;2022-08-27T15:47:11;7.03;;;2.20;;
3000;SDS011;1510;51.072;6.678;2022-08-27T15:49:40;9.00;;;2.23;;
3000;SDS011;1510;51.072;6.678;2022-08-27T15:52:12;4.87;;;1.57;;
3000;SDS011;1510;51.072;6.678;2022-08-27T15:55:56;8.90;;;2.40;;
3000;SDS011;1510;51.072;6.678;2022-08-27T15:58:45;5.50;;;2.17;;
3000;SDS011;1510;51.072;6.678;2022-08-27T16:01:29;8.20;;;2.27;;
3000;SDS011;1510;51.072;6.678;2022-08-27T16:04:32;5.77;;;1.87;;
3000;SDS011;1510;51.072;6.678;2022-08-27T16:21:47;5.73;;;1.90;;
3000;SDS011;1510;51.072;6.678;2022-08-27T16:28:06;15.33;;;2.17;;
3000;SDS011;1510;51.072;6.678;2022-08-27T16:34:05;7.43;;;2.80;;
3000;SDS011;1510;51.072;6.678;2022-08-27T16:36:55;5.47;;;2.00;;